createdAt,value
2017-09-18T00:00:24.960Z,11.35
2017-09-18T00:02:53.953Z,13.45
2017-09-18T00:05:22.334Z,13.33
2017-09-18T00:07:50.664Z,11.83
2017-09-18T00:10:18.265Z,22.33
2017-09-18T00:12:45.828Z,12.05
2017-09-18T00:15:13.413Z,9.33
2017-09-18T00:17:41.736Z,11.17
2017-09-18T00:20:09.329Z,10.97
2017-09-18T00:22:36.892Z,11.00
2017-09-18T00:25:04.548Z,12.93
2017-09-18T00:27:32.876Z,10.20
2017-09-18T00:30:00.468Z,11.82
2017-09-18T00:32:28.027Z,15.70
2017-09-18T00:34:56.633Z,11.00
2017-09-18T00:37:24.192Z,9.80
2017-09-18T00:39:51.775Z,10.63
2017-09-18T00:42:20.107Z,9.90
2017-09-18T00:44:47.669Z,8.60
2017-09-18T00:47:15.253Z,8.63
2017-09-18T00:49:42.816Z,12.57
2017-09-18T00:52:10.405Z,9.50
2017-09-18T00:54:37.964Z,10.07
2017-09-18T00:57:05.553Z,8.80
2017-09-18T00:59:33.112Z,11.13
2017-09-18T01:02:00.701Z,14.48
2017-09-18T01:04:28.260Z,12.00
2017-09-18T01:06:56.277Z,12.73
2017-09-18T01:09:24.728Z,16.10
2017-09-18T01:11:53.492Z,16.00
2017-09-18T01:14:21.076Z,13.30
2017-09-18T01:16:48.648Z,13.33
2017-09-18T01:19:17.016Z,12.20
2017-09-18T01:21:44.845Z,14.93
2017-09-18T01:24:12.642Z,17.52
2017-09-18T01:26:41.994Z,16.60
2017-09-18T01:29:09.732Z,17.30
2017-09-18T01:31:38.092Z,21.00
2017-09-18T01:34:05.664Z,18.63
2017-09-18T01:36:33.322Z,21.33
2017-09-18T01:39:01.669Z,21.10
2017-09-18T01:41:29.552Z,19.87
2017-09-18T01:43:57.932Z,23.57
2017-09-18T01:46:25.492Z,30.10
2017-09-18T01:48:54.803Z,30.58
2017-09-18T01:51:22.652Z,33.97
2017-09-18T01:53:50.216Z,39.30
2017-09-18T01:56:17.785Z,52.03
2017-09-18T01:58:45.383Z,61.87
2017-09-18T02:01:13.740Z,124.93
2017-09-18T02:03:41.316Z,205.73
2017-09-18T02:06:09.677Z,244.93
2017-09-18T02:08:37.255Z,388.30
2017-09-18T02:11:04.869Z,374.05
2017-09-18T02:13:32.440Z,435.77
2017-09-18T02:16:00.033Z,445.90
2017-09-18T02:18:28.365Z,359.80
2017-09-18T02:20:55.969Z,315.47
2017-09-18T02:23:24.309Z,229.37
2017-09-18T02:25:52.308Z,272.00
2017-09-18T02:28:19.884Z,265.43
2017-09-18T02:30:48.224Z,183.90
2017-09-18T02:33:15.821Z,177.10
2017-09-18T02:35:44.157Z,119.50
2017-09-18T02:38:11.752Z,102.70
2017-09-18T02:40:39.325Z,248.87
2017-09-18T02:43:07.688Z,270.20
2017-09-18T02:45:35.257Z,149.10
2017-09-18T02:48:03.621Z,287.47
2017-09-18T02:50:31.192Z,365.53
2017-09-18T02:52:58.784Z,278.00
2017-09-18T02:55:26.356Z,293.73
2017-09-18T02:57:55.820Z,338.83
2017-09-18T03:00:23.384Z,224.17
2017-09-18T03:02:50.978Z,150.87
2017-09-18T03:05:18.552Z,160.73
2017-09-18T03:07:46.264Z,122.20
2017-09-18T03:10:13.832Z,57.25
2017-09-18T03:12:42.162Z,73.07
2017-09-18T03:15:09.757Z,59.08
2017-09-18T03:17:37.322Z,35.30
2017-09-18T03:20:05.685Z,65.45
2017-09-18T03:22:33.247Z,176.23
2017-09-18T03:25:00.840Z,245.32
2017-09-18T03:27:29.180Z,245.77
2017-09-18T03:29:56.772Z,152.77
2017-09-18T03:32:25.108Z,240.07
2017-09-18T03:34:53.836Z,214.77
2017-09-18T03:37:22.176Z,189.77
2017-09-18T03:39:49.768Z,188.83
2017-09-18T03:42:17.344Z,182.77
2017-09-18T03:44:45.721Z,130.20
2017-09-18T03:47:14.060Z,105.20
2017-09-18T03:49:41.656Z,120.13
2017-09-18T03:52:10.007Z,162.95
2017-09-18T03:54:37.601Z,110.70
2017-09-18T03:57:05.940Z,85.10
2017-09-18T03:59:33.538Z,68.27
2017-09-18T04:02:01.868Z,75.93
2017-09-18T04:04:29.641Z,110.60
2017-09-18T04:06:57.204Z,83.80
2017-09-18T04:09:24.768Z,62.17
2017-09-18T04:11:54.792Z,63.22
2017-09-18T04:14:22.353Z,65.97
2017-09-18T04:16:49.948Z,27.15
2017-09-18T04:19:18.277Z,32.57
2017-09-18T04:21:45.877Z,47.53
2017-09-18T04:24:14.212Z,47.50
2017-09-18T04:26:41.801Z,48.20
2017-09-18T04:29:09.362Z,25.73
2017-09-18T04:31:36.948Z,38.67
2017-09-18T04:34:05.280Z,17.97
2017-09-18T04:36:32.865Z,23.52
2017-09-18T04:39:00.428Z,27.60
2017-09-18T04:41:28.016Z,34.55
2017-09-18T04:43:55.800Z,26.13
2017-09-18T04:46:23.388Z,38.80
2017-09-18T04:48:50.960Z,30.37
2017-09-18T04:51:18.556Z,66.60
2017-09-18T04:53:46.916Z,50.30
2017-09-18T04:56:15.280Z,98.17
2017-09-18T04:58:42.847Z,110.93
2017-09-18T05:01:10.429Z,124.35
2017-09-18T05:03:38.793Z,229.60
2017-09-18T05:06:06.360Z,215.20
2017-09-18T05:08:33.951Z,239.87
2017-09-18T05:11:01.524Z,177.10
2017-09-18T05:13:29.121Z,176.70
2017-09-18T05:15:56.697Z,150.03
2017-09-18T05:18:24.292Z,155.50
2017-09-18T05:20:51.872Z,170.67
2017-09-18T05:23:19.469Z,84.53
2017-09-18T05:25:47.051Z,107.47
2017-09-18T05:28:14.644Z,117.97
2017-09-18T05:30:42.212Z,172.17
2017-09-18T05:33:09.808Z,172.00
2017-09-18T05:35:37.376Z,158.33
2017-09-18T05:38:04.989Z,167.62
2017-09-18T05:40:32.556Z,152.60
2017-09-18T05:43:00.125Z,120.93
2017-09-18T05:45:27.721Z,155.13
2017-09-18T05:47:57.003Z,126.57
2017-09-18T05:50:25.361Z,86.77
2017-09-18T05:52:54.817Z,108.22
2017-09-18T05:55:22.405Z,67.60
2017-09-18T05:57:50.733Z,56.78
2017-09-18T06:00:18.320Z,82.20
2017-09-18T06:02:45.888Z,69.87
2017-09-18T06:05:14.245Z,89.33
2017-09-18T06:07:41.820Z,123.63
2017-09-18T06:10:09.416Z,147.40
2017-09-18T06:12:36.988Z,150.23
2017-09-18T06:15:04.600Z,148.80
2017-09-18T06:17:32.172Z,93.87
2017-09-18T06:20:00.542Z,105.10
2017-09-18T06:22:28.137Z,123.03
2017-09-18T06:24:55.940Z,94.60
2017-09-18T06:27:23.542Z,157.23
2017-09-18T06:29:51.878Z,68.03
2017-09-18T06:32:19.453Z,110.90
2017-09-18T06:34:47.368Z,77.57
2017-09-18T06:37:14.945Z,91.75
2017-09-18T06:39:42.532Z,57.80
2017-09-18T06:42:10.096Z,63.63
2017-09-18T06:44:37.685Z,81.27
2017-09-18T06:47:05.248Z,53.45
2017-09-18T06:49:33.605Z,59.23
2017-09-18T06:52:02.675Z,67.78
2017-09-18T06:54:30.272Z,124.90
2017-09-18T06:56:57.836Z,68.20
2017-09-18T06:59:26.192Z,80.80
2017-09-18T07:01:56.198Z,145.50
2017-09-18T07:04:23.792Z,107.37
2017-09-18T07:06:51.596Z,133.50
2017-09-18T07:09:19.285Z,89.97
2017-09-18T07:11:46.853Z,87.60
2017-09-18T07:14:14.449Z,92.87
2017-09-18T07:16:42.021Z,113.23
2017-09-18T07:19:10.397Z,66.20
2017-09-18T07:21:44.141Z,61.03
2017-09-18T07:24:14.096Z,75.82
2017-09-18T07:26:42.581Z,136.20
2017-09-18T07:29:10.184Z,141.27
2017-09-18T07:31:37.749Z,107.57
2017-09-18T07:34:05.340Z,87.20
2017-09-18T07:36:32.912Z,65.43
2017-09-18T07:39:00.505Z,61.37
2017-09-18T07:41:28.841Z,53.90
2017-09-18T07:43:56.427Z,40.77
2017-09-18T07:46:23.996Z,23.60
2017-09-18T07:48:54.012Z,32.57
2017-09-18T07:51:21.631Z,21.03
2017-09-18T07:53:49.220Z,32.87
2017-09-18T07:56:16.792Z,15.13
2017-09-18T07:58:44.388Z,11.30
2017-09-18T08:01:12.016Z,11.40
2017-09-18T08:03:39.676Z,23.27
2017-09-18T08:06:07.244Z,29.90
2017-09-18T08:08:34.900Z,27.20
2017-09-18T08:11:02.473Z,41.20
2017-09-18T08:13:30.840Z,35.10
2017-09-18T08:15:59.173Z,21.55
2017-09-18T08:18:26.764Z,12.90
2017-09-18T08:20:55.916Z,28.52
2017-09-18T08:23:23.503Z,14.60
2017-09-18T08:25:51.298Z,8.87
2017-09-18T08:28:18.892Z,7.57
2017-09-18T08:30:47.221Z,8.47
2017-09-18T08:33:14.820Z,7.80
2017-09-18T08:35:43.156Z,5.97
2017-09-18T08:38:10.852Z,8.07
2017-09-18T08:40:38.421Z,8.50
2017-09-18T08:43:06.791Z,6.40
2017-09-18T08:45:34.357Z,4.80
2017-09-18T08:48:02.725Z,8.40
2017-09-18T08:50:30.292Z,5.90
2017-09-18T08:52:57.941Z,8.40
2017-09-18T08:55:25.664Z,5.80
2017-09-18T08:57:54.871Z,5.47
2017-09-18T09:00:22.554Z,6.50
2017-09-18T09:02:50.120Z,5.70
2017-09-18T09:05:17.703Z,4.67
2017-09-18T09:07:46.032Z,4.17
2017-09-18T09:10:13.620Z,4.83
2017-09-18T09:12:41.184Z,6.43
2017-09-18T09:15:09.584Z,4.87
2017-09-18T09:17:38.058Z,4.47
2017-09-18T09:20:05.648Z,5.40
2017-09-18T09:22:33.207Z,5.63
2017-09-18T09:25:01.003Z,4.90
2017-09-18T09:27:28.620Z,4.40
2017-09-18T09:29:56.972Z,4.17
2017-09-18T09:32:24.660Z,5.37
2017-09-18T09:34:53.944Z,4.53
2017-09-18T09:37:21.503Z,4.37
2017-09-18T09:39:49.104Z,4.80
2017-09-18T09:42:16.759Z,5.20
2017-09-18T09:44:45.261Z,5.00
2017-09-18T09:47:12.932Z,5.20
2017-09-18T09:49:40.599Z,4.73
2017-09-18T09:52:08.164Z,4.10
2017-09-18T09:54:35.764Z,6.40
2017-09-18T09:57:03.328Z,4.80
2017-09-18T09:59:30.891Z,4.93
2017-09-18T10:01:59.249Z,5.10
2017-09-18T10:04:26.824Z,4.77
2017-09-18T10:06:55.972Z,4.85
2017-09-18T10:09:23.577Z,5.23
2017-09-18T10:11:51.175Z,5.40
2017-09-18T10:14:18.754Z,6.97
2017-09-18T10:16:46.369Z,4.80
2017-09-18T10:19:13.995Z,5.90
2017-09-18T10:21:41.584Z,4.87
2017-09-18T10:24:09.256Z,6.70
2017-09-18T10:26:36.823Z,4.83
2017-09-18T10:29:05.184Z,6.07
2017-09-18T10:31:32.743Z,4.20
2017-09-18T10:34:00.332Z,4.30
2017-09-18T10:36:28.673Z,7.83
2017-09-18T10:38:56.269Z,5.40
2017-09-18T10:41:24.600Z,4.53
2017-09-18T10:43:53.311Z,3.60
2017-09-18T10:46:20.880Z,3.40
2017-09-18T10:48:48.437Z,4.20
2017-09-18T10:51:16.240Z,4.70
2017-09-18T10:53:43.860Z,3.80
2017-09-18T10:56:11.543Z,4.07
2017-09-18T10:58:39.900Z,4.13
2017-09-18T11:01:07.468Z,3.63
2017-09-18T11:03:35.057Z,4.00
2017-09-18T11:06:03.392Z,5.60
2017-09-18T11:08:31.095Z,3.60
2017-09-18T11:10:58.668Z,3.87
2017-09-18T11:13:26.292Z,8.67
2017-09-18T11:15:54.881Z,4.40
2017-09-18T11:18:22.543Z,7.37
2017-09-18T11:20:50.512Z,4.60
2017-09-18T11:23:18.168Z,4.90
2017-09-18T11:25:47.236Z,4.33
2017-09-18T11:28:14.820Z,4.53
2017-09-18T11:30:42.384Z,4.77
2017-09-18T11:33:10.752Z,5.75
2017-09-18T11:35:38.312Z,3.83
2017-09-18T11:38:05.908Z,4.18
2017-09-18T11:40:34.263Z,3.50
2017-09-18T11:43:02.064Z,4.20
2017-09-18T11:45:30.416Z,4.10
2017-09-18T11:47:58.752Z,5.57
2017-09-18T11:50:26.340Z,6.50
2017-09-18T11:52:54.977Z,4.00
2017-09-18T11:55:23.389Z,4.80
2017-09-18T11:57:50.952Z,5.30
2017-09-18T12:00:18.537Z,5.63
2017-09-18T12:02:46.129Z,4.80
2017-09-18T12:05:14.508Z,5.93
2017-09-18T12:07:42.840Z,7.30
2017-09-18T12:10:10.409Z,5.53
2017-09-18T12:12:37.991Z,5.37
2017-09-18T12:15:06.324Z,4.97
2017-09-18T12:17:34.024Z,5.83
2017-09-18T12:20:01.590Z,4.27
2017-09-18T12:22:29.175Z,6.20
2017-09-18T12:24:56.745Z,6.20
2017-09-18T12:27:24.440Z,4.87
2017-09-18T12:29:52.000Z,5.00
2017-09-18T12:32:19.582Z,4.50
2017-09-18T12:34:47.964Z,4.00
2017-09-18T12:37:15.544Z,7.47
2017-09-18T12:39:43.904Z,6.97
2017-09-18T12:42:11.567Z,4.95
2017-09-18T12:44:39.185Z,9.10
2017-09-18T12:47:06.758Z,3.53
2017-09-18T12:49:34.356Z,3.80
2017-09-18T12:52:01.994Z,3.30
2017-09-18T12:54:29.575Z,4.63
2017-09-18T12:56:57.960Z,4.50
2017-09-18T12:59:25.572Z,4.70
2017-09-18T13:01:54.365Z,3.33
2017-09-18T13:04:21.972Z,3.10
2017-09-18T13:06:49.594Z,3.27
2017-09-18T13:09:17.160Z,3.28
2017-09-18T13:11:44.908Z,2.73
2017-09-18T13:14:12.473Z,2.80
2017-09-18T13:16:40.036Z,2.30
2017-09-18T13:19:07.640Z,2.42
2017-09-18T13:21:35.485Z,5.17
2017-09-18T13:24:03.226Z,3.97
2017-09-18T13:26:30.891Z,2.50
2017-09-18T13:28:58.592Z,3.00
2017-09-18T13:31:26.161Z,2.47
2017-09-18T13:33:55.852Z,2.45
2017-09-18T13:36:23.488Z,2.30
2017-09-18T13:38:51.120Z,3.53
2017-09-18T13:41:18.683Z,2.87
2017-09-18T13:43:46.307Z,1.77
2017-09-18T13:46:13.975Z,1.43
2017-09-18T13:48:41.661Z,2.40
2017-09-18T13:51:10.020Z,2.00
2017-09-18T13:53:37.589Z,2.43
2017-09-18T13:56:05.955Z,3.13
2017-09-18T13:58:33.549Z,2.10
2017-09-18T14:01:01.122Z,4.67
2017-09-18T14:03:28.708Z,2.77
2017-09-18T14:05:56.276Z,2.20
2017-09-18T14:08:23.860Z,3.17
2017-09-18T14:10:53.168Z,6.20
2017-09-18T14:13:20.764Z,2.60
2017-09-18T14:15:48.324Z,3.90
2017-09-18T14:18:15.944Z,2.10
2017-09-18T14:20:43.527Z,2.23
2017-09-18T14:23:11.880Z,2.83
2017-09-18T14:25:39.468Z,1.77
2017-09-18T14:28:07.824Z,2.23
2017-09-18T14:30:35.496Z,2.03
2017-09-18T14:33:03.829Z,2.60
2017-09-18T14:35:31.416Z,2.13
2017-09-18T14:37:58.976Z,2.07
2017-09-18T14:40:26.648Z,2.90
2017-09-18T14:42:55.854Z,2.07
2017-09-18T14:45:23.899Z,1.97
2017-09-18T14:47:51.460Z,1.93
2017-09-18T14:50:19.024Z,3.37
2017-09-18T14:52:46.611Z,1.60
2017-09-18T14:55:14.206Z,2.90
2017-09-18T14:57:41.768Z,3.83
2017-09-18T15:00:09.360Z,1.95
2017-09-18T15:02:36.924Z,2.80
2017-09-18T15:05:04.518Z,3.12
2017-09-18T15:07:32.843Z,2.63
2017-09-18T15:10:00.445Z,3.40
2017-09-18T15:12:29.828Z,4.07
2017-09-18T15:14:57.392Z,3.73
2017-09-18T15:17:24.976Z,2.90
2017-09-18T15:19:54.132Z,3.08
2017-09-18T15:22:21.720Z,2.90
2017-09-18T15:24:49.283Z,4.03
2017-09-18T15:27:17.663Z,2.70
2017-09-18T15:29:45.333Z,2.70
2017-09-18T15:32:12.928Z,2.87
2017-09-18T15:34:40.488Z,2.97
2017-09-18T15:37:08.080Z,4.20
2017-09-18T15:39:35.639Z,2.20
2017-09-18T15:42:03.233Z,1.77
2017-09-18T15:44:30.891Z,2.47
2017-09-18T15:46:58.489Z,2.30
2017-09-18T15:49:26.058Z,1.30
2017-09-18T15:51:54.939Z,2.17
2017-09-18T15:54:23.284Z,4.60
2017-09-18T15:56:50.871Z,2.37
2017-09-18T15:59:19.212Z,2.40
2017-09-18T16:01:47.565Z,3.77
2017-09-18T16:04:15.132Z,2.70
2017-09-18T16:06:42.832Z,2.63
2017-09-18T16:09:10.491Z,1.93
2017-09-18T16:11:38.157Z,3.43
2017-09-18T16:14:05.725Z,2.10
2017-09-18T16:16:33.476Z,2.07
2017-09-18T16:19:01.057Z,2.12
2017-09-18T16:21:29.389Z,2.90
2017-09-18T16:23:56.996Z,2.45
2017-09-18T16:26:25.333Z,2.70
2017-09-18T16:28:53.976Z,4.87
2017-09-18T16:31:22.305Z,3.00
2017-09-18T16:33:49.991Z,3.73
2017-09-18T16:36:17.556Z,2.40
2017-09-18T16:38:45.144Z,4.70
2017-09-18T16:41:12.730Z,1.87
2017-09-18T16:43:40.323Z,2.10
2017-09-18T16:46:07.892Z,2.15
2017-09-18T16:48:35.477Z,2.03
2017-09-18T16:51:03.808Z,1.80
2017-09-18T16:53:31.391Z,1.87
2017-09-18T16:55:58.956Z,5.53
2017-09-18T16:58:27.308Z,2.33
2017-09-18T17:00:55.823Z,2.37
2017-09-18T17:03:23.772Z,2.60
2017-09-18T17:05:51.335Z,3.43
2017-09-18T17:08:18.941Z,3.30
2017-09-18T17:10:46.509Z,3.23
2017-09-18T17:13:14.101Z,3.50
2017-09-18T17:15:41.664Z,2.23
2017-09-18T17:18:09.348Z,4.65
2017-09-18T17:20:37.013Z,2.85
2017-09-18T17:23:04.673Z,2.60
2017-09-18T17:25:32.337Z,4.67
2017-09-18T17:27:59.998Z,2.78
2017-09-18T17:30:27.660Z,3.10
2017-09-18T17:32:55.860Z,4.40
2017-09-18T17:35:24.296Z,3.00
2017-09-18T17:37:51.860Z,7.20
2017-09-18T17:40:19.455Z,5.03
2017-09-18T17:42:47.816Z,5.33
2017-09-18T17:45:15.488Z,6.03
2017-09-18T17:47:43.052Z,4.67
2017-09-18T17:50:10.704Z,5.77
2017-09-18T17:52:38.272Z,5.73
2017-09-18T17:55:05.928Z,5.27
2017-09-18T17:57:33.592Z,5.33
2017-09-18T18:00:01.256Z,4.30
2017-09-18T18:02:28.819Z,4.27
2017-09-18T18:04:56.413Z,5.40
2017-09-18T18:07:23.984Z,5.13
2017-09-18T18:09:51.572Z,3.70
2017-09-18T18:12:19.136Z,5.10
2017-09-18T18:14:46.724Z,4.30
2017-09-18T18:17:14.284Z,5.93
2017-09-18T18:19:41.936Z,5.00
2017-09-18T18:22:09.496Z,6.85
2017-09-18T18:24:38.568Z,7.70
2017-09-18T18:27:06.164Z,39.70
2017-09-18T18:29:35.258Z,30.93
2017-09-18T18:32:02.849Z,19.67
2017-09-18T18:34:30.454Z,16.97
2017-09-18T18:36:58.057Z,9.48
2017-09-18T18:39:26.388Z,10.83
2017-09-18T18:41:56.228Z,10.48
2017-09-18T18:44:23.788Z,10.80
2017-09-18T18:46:51.347Z,9.70
2017-09-18T18:49:18.933Z,7.37
2017-09-18T18:51:47.260Z,6.57
2017-09-18T18:54:15.652Z,7.63
2017-09-18T18:56:43.217Z,7.70
2017-09-18T18:59:10.815Z,7.40
2017-09-18T19:01:39.140Z,6.40
2017-09-18T19:04:06.897Z,7.37
2017-09-18T19:06:34.477Z,11.00
2017-09-18T19:09:02.239Z,6.00
2017-09-18T19:11:30.107Z,12.97
2017-09-18T19:13:59.289Z,8.03
2017-09-18T19:16:26.888Z,8.27
2017-09-18T19:18:56.700Z,10.10
2017-09-18T19:21:24.330Z,8.37
2017-09-18T19:23:51.903Z,10.80
2017-09-18T19:26:19.584Z,13.00
2017-09-18T19:28:48.911Z,9.45
2017-09-18T19:31:16.519Z,8.50
2017-09-18T19:33:44.087Z,10.60
2017-09-18T19:36:11.685Z,9.33
2017-09-18T19:38:40.059Z,9.03
2017-09-18T19:41:08.490Z,12.10
2017-09-18T19:43:36.105Z,8.83
2017-09-18T19:46:04.527Z,9.20
2017-09-18T19:48:32.235Z,9.00
2017-09-18T19:50:59.876Z,8.90
2017-09-18T19:53:27.440Z,8.73
2017-09-18T19:55:55.964Z,7.28
2017-09-18T19:58:24.319Z,7.50
2017-09-18T20:00:51.984Z,8.00
2017-09-18T20:03:19.567Z,8.03
2017-09-18T20:05:47.909Z,9.40
2017-09-18T20:08:20.315Z,7.17
2017-09-18T20:10:48.648Z,8.90
2017-09-18T20:13:16.546Z,7.03
2017-09-18T20:15:44.113Z,9.83
2017-09-18T20:18:11.677Z,9.43
2017-09-18T20:20:40.480Z,7.83
2017-09-18T20:23:08.813Z,8.05
2017-09-18T20:25:36.537Z,9.50
2017-09-18T20:28:04.106Z,12.63
2017-09-18T20:30:31.692Z,8.80
2017-09-18T20:32:59.617Z,7.37
2017-09-18T20:35:28.064Z,7.40
2017-09-18T20:37:56.752Z,9.07
2017-09-18T20:40:24.517Z,9.27
2017-09-18T20:42:53.768Z,8.67
2017-09-18T20:45:21.445Z,11.30
2017-09-18T20:47:49.032Z,8.13
2017-09-18T20:50:16.599Z,12.07
2017-09-18T20:52:44.220Z,13.70
2017-09-18T20:55:11.781Z,9.25
2017-09-18T20:57:39.385Z,9.33
2017-09-18T21:00:06.953Z,11.90
2017-09-18T21:02:34.802Z,9.60
2017-09-18T21:05:02.374Z,11.50
2017-09-18T21:07:29.932Z,10.90
2017-09-18T21:09:57.599Z,12.27
2017-09-18T21:12:25.160Z,10.43
2017-09-18T21:14:54.861Z,13.13
2017-09-18T21:17:22.428Z,14.60
2017-09-18T21:19:50.368Z,12.17
2017-09-18T21:22:17.955Z,8.90
2017-09-18T21:24:45.515Z,11.13
2017-09-18T21:27:13.109Z,11.30
2017-09-18T21:29:41.463Z,13.27
2017-09-18T21:32:09.128Z,10.10
2017-09-18T21:34:36.784Z,10.17
2017-09-18T21:37:04.381Z,19.70
2017-09-18T21:39:32.008Z,13.17
2017-09-18T21:42:00.356Z,12.25
2017-09-18T21:44:27.924Z,13.03
2017-09-18T21:46:56.616Z,13.07
2017-09-18T21:49:24.180Z,13.17
2017-09-18T21:54:25.724Z,11.93
2017-09-18T21:56:55.273Z,13.35
2017-09-18T21:59:22.836Z,10.03
2017-09-18T22:01:50.400Z,14.57
2017-09-18T22:04:22.646Z,12.13
2017-09-18T22:06:53.068Z,12.20
2017-09-18T22:09:22.734Z,10.30
2017-09-18T22:11:54.939Z,12.37
2017-09-18T22:14:27.473Z,12.43
2017-09-18T22:16:59.331Z,12.57
2017-09-18T22:19:29.331Z,14.93
2017-09-18T22:21:58.993Z,12.40
2017-09-18T22:24:27.513Z,14.45
2017-09-18T22:26:56.801Z,13.57
2017-09-18T22:29:25.873Z,12.73
2017-09-18T22:31:55.830Z,10.93
2017-09-18T22:34:23.759Z,13.07
2017-09-18T22:36:51.480Z,14.67
2017-09-18T22:39:19.843Z,11.05
2017-09-18T22:41:47.428Z,10.80
2017-09-18T22:44:16.068Z,13.43
2017-09-18T22:46:43.636Z,13.53
2017-09-18T22:49:11.425Z,11.90
2017-09-18T22:51:39.756Z,16.50
2017-09-18T22:54:07.325Z,14.95
2017-09-18T22:56:35.012Z,10.87
2017-09-18T22:59:02.573Z,12.30
2017-09-18T23:01:30.185Z,11.03
2017-09-18T23:03:58.260Z,12.77
2017-09-18T23:06:25.820Z,13.83
2017-09-18T23:08:55.975Z,12.57
2017-09-18T23:11:23.541Z,13.50
2017-09-18T23:13:51.134Z,11.10
2017-09-18T23:16:19.461Z,16.27
2017-09-18T23:18:47.056Z,15.17
2017-09-18T23:21:14.619Z,18.87
2017-09-18T23:23:42.996Z,20.10
2017-09-18T23:26:10.565Z,20.10
2017-09-18T23:28:39.036Z,21.60
2017-09-18T23:31:06.608Z,15.73
2017-09-18T23:33:34.944Z,18.63
2017-09-18T23:36:02.533Z,15.00
2017-09-18T23:38:30.200Z,18.03
2017-09-18T23:40:57.795Z,20.00
2017-09-18T23:43:25.365Z,18.57
2017-09-18T23:45:54.920Z,19.50
2017-09-18T23:48:22.480Z,16.57
2017-09-18T23:50:50.157Z,19.37
2017-09-18T23:53:17.732Z,25.40
2017-09-18T23:55:46.092Z,23.03
2017-09-18T23:58:13.666Z,18.30
